createdAt,value
2024-01-16T00:01:46.538Z,95737.75
2024-01-16T00:04:14.213Z,95744.25
2024-01-16T00:06:43.298Z,95751.44
2024-01-16T00:09:11.902Z,95754.94
2024-01-16T00:11:45.003Z,95759.56
2024-01-16T00:14:12.253Z,95772.56
2024-01-16T00:16:47.125Z,95770.94
2024-01-16T00:19:14.719Z,95776.81
2024-01-16T00:21:42.802Z,95770.59
2024-01-16T00:24:09.827Z,95769.50
2024-01-16T00:26:37.382Z,95778.22
2024-01-16T00:29:04.442Z,95781.00
2024-01-16T00:31:31.421Z,95785.38
2024-01-16T00:33:58.429Z,95781.38
2024-01-16T00:36:25.420Z,95777.13
2024-01-16T00:38:52.345Z,95785.03
2024-01-16T00:41:19.278Z,95786.47
2024-01-16T00:43:46.729Z,95795.78
2024-01-16T00:46:13.605Z,95791.63
2024-01-16T00:48:40.676Z,95799.09
2024-01-16T00:51:07.581Z,95803.41
2024-01-16T00:53:34.530Z,95797.28
2024-01-16T00:56:01.397Z,95802.28
2024-01-16T00:58:28.300Z,95804.50
2024-01-16T01:00:55.657Z,95807.84
2024-01-16T01:03:22.680Z,95810.16
2024-01-16T01:05:49.752Z,95811.25
2024-01-16T01:10:43.671Z,95810.25
2024-01-16T01:13:10.664Z,95822.78
2024-01-16T01:15:37.679Z,95826.41
2024-01-16T01:18:05.742Z,95838.66
2024-01-16T01:20:32.814Z,95831.81
2024-01-16T01:23:01.045Z,95835.03
2024-01-16T01:25:28.560Z,95830.91
2024-01-16T01:27:55.437Z,95832.09
2024-01-16T01:30:22.302Z,95838.22
2024-01-16T01:32:49.295Z,95842.22
2024-01-16T01:35:18.800Z,95841.19
2024-01-16T01:37:45.854Z,95859.72
2024-01-16T01:40:13.893Z,95860.84
2024-01-16T01:42:45.044Z,95847.38
2024-01-16T01:45:12.554Z,95863.69
2024-01-16T01:47:45.999Z,95866.16
2024-01-16T01:50:14.938Z,95862.00
2024-01-16T01:52:42.835Z,95858.88
2024-01-16T01:55:13.418Z,95864.78
2024-01-16T01:57:41.202Z,95869.31
2024-01-16T02:00:09.401Z,95867.69
2024-01-16T02:02:36.366Z,95878.25
2024-01-16T02:05:04.828Z,95878.69
2024-01-16T02:07:34.600Z,95880.50
2024-01-16T02:10:01.698Z,95881.75
2024-01-16T02:12:28.625Z,95897.53
2024-01-16T02:14:55.538Z,95881.97
2024-01-16T02:17:22.916Z,95894.97
2024-01-16T02:19:49.842Z,95895.44
2024-01-16T02:22:22.640Z,95900.78
2024-01-16T02:24:50.475Z,95900.63
2024-01-16T02:27:17.470Z,95889.31
2024-01-16T02:29:44.866Z,95896.06
2024-01-16T02:32:14.385Z,95899.34
2024-01-16T02:34:42.526Z,95885.81
2024-01-16T02:37:09.730Z,95901.59
2024-01-16T02:39:36.761Z,95898.06
2024-01-16T02:42:03.805Z,95905.06
2024-01-16T02:44:30.802Z,95912.16
2024-01-16T02:46:57.799Z,95900.31
2024-01-16T02:49:26.999Z,95901.97
2024-01-16T02:51:54.224Z,95910.59
2024-01-16T02:54:21.442Z,95908.97
2024-01-16T02:56:48.440Z,95907.03
2024-01-16T02:59:15.380Z,95908.94
2024-01-16T03:01:42.379Z,95908.13
2024-01-16T03:04:10.079Z,95917.13
2024-01-16T03:06:37.222Z,95908.69
2024-01-16T03:09:04.201Z,95904.94
2024-01-16T03:11:33.720Z,95904.78
2024-01-16T03:14:00.917Z,95903.00
2024-01-16T03:16:28.597Z,95898.00
2024-01-16T03:18:55.730Z,95899.78
2024-01-16T03:21:22.687Z,95909.28
2024-01-16T03:23:50.038Z,95912.25
2024-01-16T03:26:17.836Z,95917.69
2024-01-16T03:28:45.198Z,95915.25
2024-01-16T03:31:15.348Z,95917.31
2024-01-16T03:33:44.137Z,95922.03
2024-01-16T03:36:13.642Z,95924.47
2024-01-16T03:38:41.078Z,95919.31
2024-01-16T03:41:08.858Z,95915.81
2024-01-16T03:43:36.470Z,95918.78
2024-01-16T03:46:03.953Z,95931.03
2024-01-16T03:48:31.056Z,95926.34
2024-01-16T03:50:58.218Z,95929.03
2024-01-16T03:53:25.346Z,95921.44
2024-01-16T03:55:52.913Z,95912.38
2024-01-16T03:58:19.935Z,95918.63
2024-01-16T04:00:47.674Z,95908.16
2024-01-16T04:03:14.628Z,95909.53
2024-01-16T04:05:42.098Z,95929.22
2024-01-16T04:08:09.148Z,95919.03
2024-01-16T04:10:36.658Z,95919.81
2024-01-16T04:13:04.378Z,95929.59
2024-01-16T04:15:31.482Z,95923.34
2024-01-16T04:17:58.547Z,95922.00
2024-01-16T04:20:25.545Z,95927.41
2024-01-16T04:22:52.714Z,95926.34
2024-01-16T04:25:19.602Z,95928.75
2024-01-16T04:27:47.149Z,95929.34
2024-01-16T04:30:14.596Z,95939.50
2024-01-16T04:32:41.787Z,95937.19
2024-01-16T04:35:09.878Z,95920.91
2024-01-16T04:37:36.830Z,95935.72
2024-01-16T04:40:05.870Z,95929.63
2024-01-16T04:42:33.830Z,95930.56
2024-01-16T04:45:00.710Z,95925.78
2024-01-16T04:47:28.928Z,95920.38
2024-01-16T04:49:55.914Z,95927.66
2024-01-16T04:52:22.955Z,95927.13
2024-01-16T04:54:49.927Z,95928.47
2024-01-16T04:57:16.957Z,95927.88
2024-01-16T04:59:43.918Z,95934.97
2024-01-16T05:02:10.938Z,95917.34
2024-01-16T05:04:41.001Z,95924.31
2024-01-16T05:07:07.912Z,95912.69
2024-01-16T05:09:34.818Z,95915.53
2024-01-16T05:12:02.625Z,95914.97
2024-01-16T05:14:29.625Z,95913.50
2024-01-16T05:16:56.515Z,95914.84
2024-01-16T05:19:23.432Z,95914.81
2024-01-16T05:21:50.392Z,95913.06
2024-01-16T05:24:17.363Z,95918.75
2024-01-16T05:26:44.875Z,95920.53
2024-01-16T05:29:13.175Z,95919.69
2024-01-16T05:31:43.331Z,95920.50
2024-01-16T05:34:11.420Z,95917.53
2024-01-16T05:36:38.904Z,95911.53
2024-01-16T05:39:06.092Z,95917.78
2024-01-16T05:41:36.735Z,95905.88
2024-01-16T05:44:04.787Z,95907.91
2024-01-16T05:46:35.316Z,95914.44
2024-01-16T05:49:02.463Z,95925.66
2024-01-16T05:51:32.737Z,95932.69
2024-01-16T05:53:59.625Z,95922.59
2024-01-16T05:56:26.610Z,95929.38
2024-01-16T05:58:53.657Z,95936.00
2024-01-16T06:01:20.676Z,95930.56
2024-01-16T06:03:49.999Z,95934.47
2024-01-16T06:06:17.684Z,95925.25
2024-01-16T06:08:44.768Z,95929.28
2024-01-16T06:11:14.500Z,95930.59
2024-01-16T06:13:42.130Z,95930.31
2024-01-16T06:16:11.582Z,95932.69
2024-01-16T06:18:38.656Z,95937.81
2024-01-16T06:21:05.977Z,95933.19
2024-01-16T06:23:32.877Z,95934.38
2024-01-16T06:26:01.665Z,95929.47
2024-01-16T06:28:28.692Z,95932.31
2024-01-16T06:30:55.791Z,95926.47
2024-01-16T06:33:22.894Z,95937.94
2024-01-16T06:35:53.879Z,95936.34
2024-01-16T06:38:21.596Z,95932.47
2024-01-16T06:40:48.647Z,95932.97
2024-01-16T06:43:17.089Z,95941.56
2024-01-16T06:45:45.307Z,95935.03
2024-01-16T06:48:12.681Z,95931.44
2024-01-16T06:50:39.862Z,95935.53
2024-01-16T06:53:06.942Z,95940.19
2024-01-16T06:55:33.964Z,95936.53
2024-01-16T06:58:00.910Z,95939.53
2024-01-16T07:00:28.139Z,95936.75
2024-01-16T07:02:57.965Z,95947.25
2024-01-16T07:05:25.247Z,95936.03
2024-01-16T07:07:52.243Z,95938.34
2024-01-16T07:10:19.461Z,95939.44
2024-01-16T07:12:46.884Z,95937.94
2024-01-16T07:15:14.550Z,95922.03
2024-01-16T07:17:41.963Z,95934.13
2024-01-16T07:20:09.805Z,95936.19
2024-01-16T07:22:40.457Z,95932.78
2024-01-16T07:25:08.531Z,95936.16
2024-01-16T07:27:35.619Z,95931.09
2024-01-16T07:30:05.548Z,95928.13
2024-01-16T07:32:33.386Z,95935.25
2024-01-16T07:35:00.825Z,95941.25
2024-01-16T07:37:27.762Z,95938.53
2024-01-16T07:39:54.662Z,95940.16
2024-01-16T07:42:21.540Z,95943.19
2024-01-16T07:44:48.483Z,95943.47
2024-01-16T07:47:15.419Z,95944.25
2024-01-16T07:49:43.239Z,95951.91
2024-01-16T07:52:10.475Z,95959.72
2024-01-16T07:54:37.396Z,95954.19
2024-01-16T07:57:04.583Z,95952.31
2024-01-16T07:59:31.581Z,95952.16
2024-01-16T08:01:58.586Z,95956.78
2024-01-16T08:04:25.617Z,95955.03
2024-01-16T08:06:54.197Z,95949.88
2024-01-16T08:09:21.403Z,95946.75
2024-01-16T08:11:48.714Z,95950.81
2024-01-16T08:14:15.803Z,95941.84
2024-01-16T08:16:42.789Z,95946.72
2024-01-16T08:19:09.780Z,95945.25
2024-01-16T08:21:37.370Z,95950.25
2024-01-16T08:24:04.518Z,95925.66
2024-01-16T08:26:31.510Z,95943.94
2024-01-16T08:28:59.148Z,95939.13
2024-01-16T08:31:26.038Z,95942.56
2024-01-16T08:33:54.515Z,95938.22
2024-01-16T08:36:21.669Z,95934.28
2024-01-16T08:38:48.772Z,95934.53
2024-01-16T08:41:15.912Z,95941.00
2024-01-16T08:43:42.909Z,95935.59
2024-01-16T08:46:09.891Z,95937.19
2024-01-16T08:48:37.484Z,95941.00
2024-01-16T08:51:09.336Z,95938.88
2024-01-16T08:53:36.439Z,95942.03
2024-01-16T08:56:03.694Z,95930.09
2024-01-16T08:58:30.782Z,95928.19
2024-01-16T09:00:57.687Z,95927.88
2024-01-16T09:03:24.632Z,95927.28
2024-01-16T09:05:51.690Z,95917.28
2024-01-16T09:08:18.703Z,95922.41
2024-01-16T09:10:45.577Z,95911.34
2024-01-16T09:13:13.000Z,95913.81
2024-01-16T09:15:40.760Z,95919.34
2024-01-16T09:18:07.784Z,95910.25
2024-01-16T09:20:35.749Z,95912.88
2024-01-16T09:23:03.516Z,95909.22
2024-01-16T09:25:30.975Z,95915.66
2024-01-16T09:27:57.973Z,95912.41
2024-01-16T09:30:24.882Z,95908.25
2024-01-16T09:32:51.905Z,95914.53
2024-01-16T09:35:19.103Z,95910.34
2024-01-16T09:37:46.100Z,95905.91
2024-01-16T09:40:14.746Z,95908.69
2024-01-16T09:42:44.367Z,95907.03
2024-01-16T09:45:12.496Z,95919.78
2024-01-16T09:47:40.202Z,95916.34
2024-01-16T09:50:07.705Z,95916.97
2024-01-16T09:52:35.511Z,95919.25
2024-01-16T09:55:02.397Z,95917.72
2024-01-16T09:57:31.022Z,95918.28
2024-01-16T09:59:59.058Z,95920.34
2024-01-16T10:02:26.557Z,95916.28
2024-01-16T10:04:53.521Z,95919.16
2024-01-16T10:07:28.820Z,95922.63
2024-01-16T10:09:59.087Z,95918.75
2024-01-16T10:12:26.753Z,95915.25
2024-01-16T10:14:55.503Z,95916.50
2024-01-16T10:17:22.669Z,95902.91
2024-01-16T10:19:52.618Z,95913.59
2024-01-16T10:22:27.510Z,95910.97
2024-01-16T10:25:17.994Z,95912.06
2024-01-16T10:27:45.354Z,95895.13
2024-01-16T10:30:12.867Z,95900.44
2024-01-16T10:32:44.620Z,95897.38
2024-01-16T10:35:14.364Z,95885.28
2024-01-16T10:37:49.054Z,95887.31
2024-01-16T10:40:23.730Z,95885.34
2024-01-16T10:43:01.594Z,95881.59
2024-01-16T10:45:29.039Z,95876.09
2024-01-16T10:48:07.805Z,95876.75
2024-01-16T10:50:38.187Z,95871.19
2024-01-16T10:53:10.230Z,95871.38
2024-01-16T10:55:52.243Z,95868.03
2024-01-16T10:58:25.239Z,95871.44
2024-01-16T11:00:55.684Z,95872.72
2024-01-16T11:03:52.126Z,95875.72
2024-01-16T11:06:20.616Z,95876.25
2024-01-16T11:08:49.929Z,95879.75
2024-01-16T11:11:18.606Z,95878.19
2024-01-16T11:13:47.787Z,95875.84
2024-01-16T11:16:15.531Z,95869.16
2024-01-16T11:18:42.747Z,95873.38
2024-01-16T11:21:17.963Z,95866.66
2024-01-16T11:23:47.655Z,95864.00
2024-01-16T11:26:38.819Z,95866.69
2024-01-16T11:32:13.343Z,95859.09
2024-01-16T11:34:45.422Z,95864.09
2024-01-16T11:37:16.418Z,95850.03
2024-01-16T11:39:43.271Z,95852.19
2024-01-16T11:42:10.788Z,95842.31
2024-01-16T11:44:38.667Z,95837.09
2024-01-16T11:47:06.444Z,95834.94
2024-01-16T11:49:33.844Z,95830.97
2024-01-16T11:52:01.193Z,95821.09
2024-01-16T11:54:28.268Z,95807.47
2024-01-16T11:57:13.843Z,95811.41
2024-01-16T12:00:14.204Z,95804.50
2024-01-16T12:02:55.308Z,95803.19
2024-01-16T12:05:23.215Z,95804.06
2024-01-16T12:07:53.378Z,95792.56
2024-01-16T12:10:23.330Z,95778.88
2024-01-16T12:12:52.392Z,95777.31
2024-01-16T12:15:21.850Z,95787.84
2024-01-16T12:18:00.121Z,95782.16
2024-01-16T12:20:32.873Z,95784.84
2024-01-16T12:23:05.899Z,95783.78
2024-01-16T12:26:00.595Z,95773.97
2024-01-16T12:28:31.650Z,95762.56
2024-01-16T12:31:01.720Z,95767.88
2024-01-16T12:33:29.881Z,95759.41
2024-01-16T12:36:05.904Z,95755.25
2024-01-16T12:38:33.892Z,95764.16
2024-01-16T12:41:03.599Z,95757.88
2024-01-16T12:43:32.889Z,95759.53
2024-01-16T12:45:59.920Z,95753.22
2024-01-16T12:48:28.012Z,95750.78
2024-01-16T12:51:08.145Z,95759.16
2024-01-16T12:53:37.849Z,95759.53
2024-01-16T12:56:05.436Z,95761.50
2024-01-16T12:58:38.797Z,95765.63
2024-01-16T13:03:56.887Z,95754.25
2024-01-16T13:06:24.916Z,95747.75
2024-01-16T13:08:53.446Z,95743.50
2024-01-16T13:11:32.715Z,95738.25
2024-01-16T13:14:05.329Z,95738.78
2024-01-16T13:16:32.332Z,95739.03
2024-01-16T13:19:03.602Z,95728.31
2024-01-16T13:21:30.537Z,95718.72
2024-01-16T13:23:57.448Z,95716.97
2024-01-16T13:26:24.307Z,95708.53
2024-01-16T13:28:51.760Z,95713.50
2024-01-16T13:31:18.788Z,95713.72
2024-01-16T13:33:45.801Z,95706.34
2024-01-16T13:36:13.036Z,95707.97
2024-01-16T13:38:39.933Z,95705.94
2024-01-16T13:41:06.830Z,95705.13
2024-01-16T13:43:33.733Z,95695.59
2024-01-16T13:46:00.731Z,95703.97
2024-01-16T13:48:27.709Z,95699.75
2024-01-16T13:50:54.848Z,95698.69
2024-01-16T13:53:21.745Z,95706.22
2024-01-16T13:55:48.653Z,95702.03
2024-01-16T13:58:15.848Z,95701.94
2024-01-16T14:00:43.125Z,95701.94
2024-01-16T14:03:10.682Z,95703.97
2024-01-16T14:05:37.960Z,95712.38
2024-01-16T14:08:05.841Z,95710.72
2024-01-16T14:10:32.820Z,95706.09
2024-01-16T14:12:59.720Z,95704.81
2024-01-16T14:15:26.850Z,95709.41
2024-01-16T14:17:56.719Z,95706.78
2024-01-16T14:20:28.206Z,95696.63
2024-01-16T14:22:56.577Z,95698.97
2024-01-16T14:25:23.755Z,95699.63
2024-01-16T14:28:05.936Z,95693.97
2024-01-16T14:30:36.711Z,95686.81
2024-01-16T14:33:04.198Z,95687.75
2024-01-16T14:35:31.176Z,95692.63
2024-01-16T14:37:58.142Z,95689.06
2024-01-16T14:40:28.820Z,95686.84
2024-01-16T14:43:00.373Z,95685.53
2024-01-16T14:45:28.634Z,95684.91
2024-01-16T14:47:56.010Z,95696.25
2024-01-16T14:50:23.493Z,95681.16
2024-01-16T14:52:52.945Z,95684.88
2024-01-16T14:55:24.058Z,95674.13
2024-01-16T14:57:56.653Z,95673.44
2024-01-16T15:00:28.034Z,95683.66
2024-01-16T15:02:55.630Z,95678.78
2024-01-16T15:05:23.424Z,95680.91
2024-01-16T15:07:54.663Z,95679.00
2024-01-16T15:10:22.483Z,95677.72
2024-01-16T15:12:49.595Z,95671.28
2024-01-16T15:15:17.216Z,95665.13
2024-01-16T15:17:45.445Z,95669.66
2024-01-16T15:20:12.897Z,95674.53
2024-01-16T15:22:47.290Z,95670.31
2024-01-16T15:25:16.790Z,95676.16
2024-01-16T15:27:46.087Z,95670.34
2024-01-16T15:30:15.058Z,95677.81
2024-01-16T15:32:42.414Z,95673.56
2024-01-16T15:35:09.550Z,95667.75
2024-01-16T15:37:36.599Z,95682.03
2024-01-16T15:40:07.808Z,95682.50
2024-01-16T15:42:37.759Z,95690.78
2024-01-16T15:45:05.696Z,95675.88
2024-01-16T15:47:32.855Z,95683.31
2024-01-16T15:50:00.785Z,95680.41
2024-01-16T15:52:28.624Z,95682.34
2024-01-16T15:54:55.526Z,95675.06
2024-01-16T15:57:22.474Z,95675.88
2024-01-16T15:59:49.373Z,95670.84
2024-01-16T16:02:16.377Z,95676.16
2024-01-16T16:04:43.354Z,95673.75
2024-01-16T16:07:10.262Z,95673.75
2024-01-16T16:09:37.239Z,95667.75
2024-01-16T16:12:06.573Z,95663.06
2024-01-16T16:14:33.652Z,95665.94
2024-01-16T16:17:03.341Z,95670.66
2024-01-16T16:19:31.445Z,95676.31
2024-01-16T16:21:58.574Z,95682.63
2024-01-16T16:24:25.503Z,95668.53
2024-01-16T16:26:54.840Z,95680.31
2024-01-16T16:29:21.946Z,95671.22
2024-01-16T16:31:48.976Z,95676.06
2024-01-16T16:34:16.301Z,95680.25
2024-01-16T16:36:44.116Z,95677.00
2024-01-16T16:39:11.523Z,95682.81
2024-01-16T16:41:41.980Z,95682.19
2024-01-16T16:44:08.967Z,95683.75
2024-01-16T16:46:36.712Z,95692.50
2024-01-16T16:49:03.993Z,95686.31
2024-01-16T16:51:31.065Z,95681.75
2024-01-16T16:53:58.356Z,95689.84
2024-01-16T16:56:25.801Z,95682.69
2024-01-16T16:58:53.579Z,95681.16
2024-01-16T17:01:21.353Z,95678.03
2024-01-16T17:03:53.400Z,95692.25
2024-01-16T17:06:20.781Z,95689.28
2024-01-16T17:08:48.041Z,95702.53
2024-01-16T17:11:15.132Z,95698.25
2024-01-16T17:13:46.836Z,95703.59
2024-01-16T17:16:18.147Z,95702.25
2024-01-16T17:18:45.374Z,95695.56
2024-01-16T17:21:14.308Z,95694.81
2024-01-16T17:23:41.524Z,95693.81
2024-01-16T17:26:08.525Z,95699.88
2024-01-16T17:28:35.549Z,95698.94
2024-01-16T17:31:03.180Z,95703.88
2024-01-16T17:33:30.958Z,95705.53
2024-01-16T17:36:04.272Z,95709.00
2024-01-16T17:38:32.052Z,95693.66
2024-01-16T17:41:00.293Z,95692.63
2024-01-16T17:43:27.397Z,95680.78
2024-01-16T17:45:54.245Z,95687.38
2024-01-16T17:48:21.434Z,95694.47
2024-01-16T17:50:48.673Z,95686.34
2024-01-16T17:53:15.898Z,95687.72
2024-01-16T17:55:43.688Z,95684.72
2024-01-16T17:58:11.978Z,95690.97
2024-01-16T18:00:39.477Z,95681.50
2024-01-16T18:03:15.750Z,95681.81
2024-01-16T18:05:50.589Z,95683.09
2024-01-16T18:08:18.316Z,95690.19
2024-01-16T18:10:45.325Z,95688.47
2024-01-16T18:13:12.266Z,95691.69
2024-01-16T18:15:39.173Z,95695.25
2024-01-16T18:18:08.551Z,95690.25
2024-01-16T18:20:36.263Z,95695.53
2024-01-16T18:23:07.517Z,95693.91
2024-01-16T18:25:35.358Z,95682.81
2024-01-16T18:28:02.282Z,95686.34
2024-01-16T18:30:29.354Z,95684.44
2024-01-16T18:32:57.936Z,95679.56
2024-01-16T18:35:24.892Z,95690.94
2024-01-16T18:37:54.530Z,95671.13
2024-01-16T18:40:21.575Z,95672.78
2024-01-16T18:42:48.528Z,95672.25
2024-01-16T18:45:19.273Z,95666.97
2024-01-16T18:47:49.386Z,95669.81
2024-01-16T18:50:18.737Z,95671.97
2024-01-16T18:52:46.493Z,95670.63
2024-01-16T18:55:14.596Z,95676.31
2024-01-16T18:57:43.839Z,95676.06
2024-01-16T19:00:16.312Z,95680.41
2024-01-16T19:02:45.130Z,95675.41
2024-01-16T19:05:13.282Z,95665.50
2024-01-16T19:07:45.534Z,95668.19
2024-01-16T19:10:14.295Z,95663.34
2024-01-16T19:12:49.057Z,95661.03
2024-01-16T19:15:19.316Z,95668.06
2024-01-16T19:17:52.007Z,95660.91
2024-01-16T19:20:23.113Z,95665.78
2024-01-16T19:22:51.311Z,95658.47
2024-01-16T19:25:18.485Z,95651.69
2024-01-16T19:27:48.586Z,95649.28
2024-01-16T19:30:16.658Z,95645.47
2024-01-16T19:32:45.061Z,95649.78
2024-01-16T19:35:13.297Z,95639.25
2024-01-16T19:37:43.951Z,95640.06
2024-01-16T19:40:13.275Z,95632.50
2024-01-16T19:42:40.759Z,95640.47
2024-01-16T19:45:10.496Z,95636.53
2024-01-16T19:47:40.555Z,95624.88
2024-01-16T19:50:20.901Z,95626.50
2024-01-16T19:52:52.075Z,95625.56
2024-01-16T19:55:22.353Z,95619.47
2024-01-16T19:57:49.473Z,95603.09
2024-01-16T20:00:17.885Z,95615.13
2024-01-16T20:02:45.795Z,95605.41
2024-01-16T20:05:16.767Z,95607.44
2024-01-16T20:07:47.384Z,95607.03
2024-01-16T20:10:15.807Z,95600.53
2024-01-16T20:12:45.005Z,95596.19
2024-01-16T20:15:14.416Z,95589.69
2024-01-16T20:17:42.404Z,95595.38
2024-01-16T20:20:11.543Z,95601.59
2024-01-16T20:22:38.917Z,95597.81
2024-01-16T20:25:06.678Z,95590.78
2024-01-16T20:27:34.032Z,95589.16
2024-01-16T20:30:01.528Z,95577.25
2024-01-16T20:32:28.690Z,95568.31
2024-01-16T20:34:55.811Z,95568.72
2024-01-16T20:37:22.815Z,95558.84
2024-01-16T20:39:49.735Z,95545.84
2024-01-16T20:42:16.807Z,95555.03
2024-01-16T20:44:44.321Z,95552.34
2024-01-16T20:47:11.913Z,95544.50
2024-01-16T20:49:38.862Z,95544.50
2024-01-16T20:52:06.216Z,95544.19
2024-01-16T20:54:33.262Z,95539.59
2024-01-16T20:57:00.264Z,95542.88
2024-01-16T20:59:27.962Z,95546.38
2024-01-16T21:01:55.514Z,95541.09
2024-01-16T21:04:22.520Z,95539.34
2024-01-16T21:06:49.741Z,95550.72
2024-01-16T21:09:17.084Z,95539.06
2024-01-16T21:11:44.970Z,95539.88
2024-01-16T21:14:12.194Z,95529.59
2024-01-16T21:16:39.136Z,95531.91
2024-01-16T21:19:06.968Z,95532.19
2024-01-16T21:21:34.886Z,95524.19
2024-01-16T21:24:03.029Z,95515.81
2024-01-16T21:26:30.010Z,95517.41
2024-01-16T21:28:57.114Z,95511.47
2024-01-16T21:31:24.099Z,95514.97
2024-01-16T21:33:51.160Z,95522.00
2024-01-16T21:36:18.079Z,95519.56
2024-01-16T21:38:45.019Z,95516.06
2024-01-16T21:41:13.450Z,95522.03
2024-01-16T21:43:41.315Z,95526.34
2024-01-16T21:46:08.342Z,95517.69
2024-01-16T21:48:36.050Z,95509.03
2024-01-16T21:51:03.324Z,95507.41
2024-01-16T21:53:30.555Z,95504.72
2024-01-16T21:55:57.518Z,95507.41
2024-01-16T21:58:24.470Z,95512.16
2024-01-16T22:00:53.974Z,95505.63
2024-01-16T22:03:21.225Z,95498.34
2024-01-16T22:05:48.281Z,95491.69
2024-01-16T22:08:15.191Z,95494.94
2024-01-16T22:10:43.368Z,95490.88
2024-01-16T22:13:12.684Z,95495.50
2024-01-16T22:15:39.654Z,95486.00
2024-01-16T22:18:06.737Z,95487.63
2024-01-16T22:20:33.961Z,95477.63
2024-01-16T22:23:01.209Z,95479.25
2024-01-16T22:25:29.685Z,95472.09
2024-01-16T22:27:58.283Z,95471.41
2024-01-16T22:30:27.319Z,95470.03
2024-01-16T22:35:22.407Z,95467.47
2024-01-16T22:37:50.221Z,95469.75
2024-01-16T22:40:19.768Z,95452.72
2024-01-16T22:42:46.863Z,95446.22
2024-01-16T22:45:14.071Z,95448.09
2024-01-16T22:47:43.103Z,95440.81
2024-01-16T22:50:10.314Z,95437.03
2024-01-16T22:52:37.208Z,95434.00
2024-01-16T22:55:05.327Z,95437.56
2024-01-16T22:57:33.939Z,95429.84
2024-01-16T23:00:01.565Z,95410.25
2024-01-16T23:02:30.011Z,95401.34
2024-01-16T23:04:57.204Z,95402.81
2024-01-16T23:07:24.296Z,95391.59
2024-01-16T23:09:51.282Z,95391.59
2024-01-16T23:12:18.282Z,95385.94
2024-01-16T23:14:45.300Z,95391.88
2024-01-16T23:17:13.206Z,95378.63
2024-01-16T23:19:40.524Z,95372.13
2024-01-16T23:22:08.522Z,95369.16
2024-01-16T23:24:35.477Z,95365.94
2024-01-16T23:27:02.606Z,95350.81
2024-01-16T23:29:32.061Z,95352.41
2024-01-16T23:31:58.963Z,95355.69
2024-01-16T23:34:26.058Z,95349.19
2024-01-16T23:36:53.036Z,95354.34
2024-01-16T23:39:19.965Z,95345.00
2024-01-16T23:41:46.874Z,95352.72
2024-01-16T23:44:14.468Z,95340.81
2024-01-16T23:46:41.427Z,95354.03
2024-01-16T23:49:08.303Z,95346.22
2024-01-16T23:51:35.251Z,95337.03
2024-01-16T23:54:03.667Z,95335.16
2024-01-16T23:56:31.067Z,95337.47
2024-01-16T23:58:58.060Z,95320.56
